Flight Track Log - Related Links

Times and Time Zones

All times are in EDT time to prevent confusion due to time zone crossing. See the SWA3321 flight status page for this flight to view local times or setup timezone preferences in your user account.

Time Position Orientation Groundspeed Altitude Reporting Facility
EDT Latitude Longitude Course Direction KTS MPH feet Rate Location/Type
Mon 06:40:38 AM 42.9500 -71.4167 12° North 162 186 1,300  Level KA90
Mon 06:42:22 AM 43.0353 -71.3919 12° North 219 252 6,100 2,598 Climbing Boston Center
Mon 06:43:22 AM 43.0631 -71.4653 297° West 186 214 8,400 2,459 Climbing Boston Center
Mon 06:44:24 AM 43.0725 -71.5761 277° West 239 275 11,100 2,600 Climbing Boston Center
Mon 06:45:22 AM 43.0794 -71.6897 275° West 309 356 13,600 2,874 Climbing Boston Center
Mon 06:46:23 AM 43.0886 -71.8289 275° West 338 389 16,800 2,950 Climbing Boston Center
Mon 06:47:22 AM 43.1100 -71.9622 282° West 353 406 19,500 2,600 Climbing Boston Center
Mon 06:48:23 AM 43.1397 -72.0958 287° West 359 413 22,000 2,262 Climbing Boston Center
Mon 06:49:24 AM 43.1692 -72.2353 286° West 366 421 24,100 1,934 Climbing Boston Center
Mon 06:50:24 AM 43.2047 -72.3775 289° West 383 441 25,900 1,831 Climbing Boston Center
Mon 06:51:22 AM 43.2361 -72.5114 288° West 407 468 27,700 1,831 Climbing Boston Center
Mon 06:52:22 AM 43.2506 -72.6653 277° West 412 474 29,500 1,770 Climbing Boston Center
Mon 06:53:24 AM 43.2481 -72.8192 269° West 412 474 31,300 1,773 Climbing Boston Center
Mon 06:54:34 AM 43.2453 -73.0017 269° West 402 463 33,400 1,740 Climbing Boston Center
Mon 06:55:35 AM 43.2442 -73.1556 269° West 402 463 35,100 1,475 Climbing Boston Center
Mon 06:56:36 AM 43.2411 -73.3036 268° West 402 463 36,400 1,169 Climbing Boston Center
Mon 06:57:33 AM 43.2356 -73.4661 267° West 396 456 37,400 821 Climbing Boston Center
Mon 06:58:33 AM 43.2342 -73.6200 269° West 396 456 38,000 295 Climbing Boston Center
Mon 06:59:35 AM 43.2306 -73.7708 268° West 402 463 38,000  Level Boston Center
Mon 07:00:36 AM 43.2264 -73.9217 268° West 402 463 38,000  Level Boston Center
Mon 07:01:35 AM 43.2225 -74.0697 268° West 402 463 38,000  Level Boston Center
Mon 07:02:36 AM 43.2203 -74.2208 269° West 402 463 38,000  Level Boston Center
Mon 07:03:36 AM 43.2178 -74.3661 269° West 402 463 38,000  Level Boston Center
Mon 07:04:35 AM 43.2131 -74.5169 268° West 402 463 38,000  Level Boston Center
Mon 07:05:34 AM 43.2103 -74.6650 269° West 402 463 38,000  Level Boston Center
Mon 07:06:35 AM 43.2094 -74.8131 270° West 402 463 38,000  Level Boston Center
Mon 07:07:36 AM 43.2042 -74.9581 267° West 402 463 38,000  Level Boston Center
Mon 07:08:36 AM 43.1986 -75.1089 267° West 402 463 38,000  Level Boston Center
Mon 07:09:34 AM 43.1933 -75.2425 267° West 402 463 38,000  Level Boston Center
Mon 07:10:34 AM 43.1875 -75.3933 267° West 402 463 38,000  Level Boston Center
Mon 07:11:36 AM 43.1856 -75.5442 269° West 402 463 38,000  Level Boston Center
Mon 07:12:34 AM 43.1814 -75.6919 268° West 402 463 38,000  Level Boston Center
Mon 07:13:34 AM 43.1750 -75.8397 267° West 402 463 38,000  Level Boston Center
Mon 07:14:34 AM 43.1706 -75.9875 268° West 402 463 38,000  Level Boston Center
Mon 07:15:36 AM 43.1658 -76.1383 268° West 402 463 38,000  Level Boston Center
Mon 07:17:20 AM 43.1033 -76.3914 251° West 391 450 38,000  Level Cleveland Center
Mon 07:18:20 AM 43.0583 -76.5336 247° West 397 457 38,000  Level Cleveland Center
Mon 07:19:20 AM 43.0131 -76.6703 246° West 397 457 38,000  Level Cleveland Center
Mon 07:20:20 AM 42.9658 -76.8181 246° West 405 466 38,000 -50 Level Cleveland Center
Mon 07:21:20 AM 42.9203 -76.9567 246° West 405 466 37,900 -550 Descending Cleveland Center
Mon 07:22:20 AM 42.8764 -77.0925 246° West 405 466 36,900 -900 Descending Cleveland Center
Mon 07:23:20 AM 42.8306 -77.2311 246° West 405 466 36,100 -450 Descending Cleveland Center
Mon 07:24:20 AM 42.7864 -77.3692 246° West 405 466 36,000 -50 Descending Cleveland Center
Mon 07:25:20 AM 42.7403 -77.5072 246° West 405 466 36,000  Level Cleveland Center
Mon 07:26:20 AM 42.7014 -77.6194 245° Southwest 405 466 36,000  Level Cleveland Center
Mon 07:27:20 AM 42.6531 -77.7686 246° West 405 466 36,000  Level Cleveland Center
Mon 07:28:20 AM 42.6083 -77.9003 245° Southwest 405 466 36,000  Level Cleveland Center
Mon 07:29:20 AM 42.5633 -78.0347 246° West 400 460 36,000  Level Cleveland Center
Mon 07:30:20 AM 42.5203 -78.1633 246° West 395 455 36,000  Level Cleveland Center
Mon 07:31:20 AM 42.4772 -78.2944 246° West 390 449 36,000  Level Cleveland Center
Mon 07:32:20 AM 42.4317 -78.4256 245° Southwest 390 449 36,000  Level Cleveland Center
Mon 07:33:20 AM 42.3881 -78.5533 245° Southwest 390 449 36,000  Level Cleveland Center
Mon 07:34:20 AM 42.3406 -78.6869 244° Southwest 390 449 36,000  Level Cleveland Center
Mon 07:35:20 AM 42.2967 -78.8175 246° West 390 449 36,000  Level Cleveland Center
Mon 07:36:20 AM 42.2444 -78.9619 244° Southwest 390 449 36,000  Level Cleveland Center
Mon 07:37:20 AM 42.1983 -79.0978 245° Southwest 390 449 36,000  Level Cleveland Center
Mon 07:38:20 AM 42.1606 -79.2331 249° West 390 449 36,000  Level Cleveland Center
Mon 07:39:20 AM 42.1267 -79.3681 251° West 390 449 36,000  Level Cleveland Center
Mon 07:40:20 AM 42.1008 -79.5058 256° West 390 449 36,000  Level Cleveland Center
Mon 07:41:20 AM 42.0853 -79.6458 262° West 385 443 36,000  Level Cleveland Center
Mon 07:42:20 AM 42.0678 -79.7889 261° West 385 443 36,000  Level Cleveland Center
Mon 07:43:20 AM 42.0519 -79.9289 261° West 390 449 36,000  Level Cleveland Center
Mon 07:44:20 AM 42.0339 -80.0689 260° West 390 449 36,000  Level Cleveland Center
Mon 07:45:20 AM 42.0178 -80.2114 261° West 390 449 36,000  Level Cleveland Center
Mon 07:46:20 AM 41.9994 -80.3514 260° West 390 449 36,000  Level Cleveland Center
Mon 07:47:20 AM 41.9808 -80.4939 260° West 390 449 36,000  Level Cleveland Center
Mon 07:48:20 AM 41.9642 -80.6333 261° West 385 443 36,000  Level Cleveland Center
Mon 07:49:20 AM 41.9453 -80.7731 260° West 391 450 36,000  Level Cleveland Center
Mon 07:50:20 AM 41.9303 -80.9181 262° West 391 450 36,000  Level Cleveland Center
Mon 07:51:20 AM 41.9089 -81.0547 258° West 391 450 36,000  Level Cleveland Center
Mon 07:52:20 AM 41.8894 -81.1997 260° West 391 450 36,000  Level Cleveland Center
Mon 07:53:20 AM 41.8700 -81.3472 260° West 391 450 36,000  Level Cleveland Center
Mon 07:54:20 AM 41.8522 -81.4753 259° West 391 450 36,000  Level Cleveland Center
Mon 07:55:20 AM 41.8344 -81.6169 260° West 391 450 36,000  Level Cleveland Center
Mon 07:56:20 AM 41.8164 -81.7589 260° West 391 450 36,000  Level Cleveland Center
Mon 07:57:20 AM 41.7939 -81.9033 258° West 391 450 36,000  Level Cleveland Center
Mon 07:58:20 AM 41.7733 -82.0475 259° West 391 450 36,000  Level Cleveland Center
Mon 07:59:20 AM 41.7525 -82.2003 260° West 391 450 36,000  Level Cleveland Center
Mon 08:00:20 AM 41.7294 -82.3472 258° West 391 450 36,000  Level Cleveland Center
Mon 08:01:20 AM 41.7086 -82.4911 259° West 391 450 36,000  Level Cleveland Center
Mon 08:02:20 AM 41.6894 -82.6353 260° West 391 450 36,000  Level Cleveland Center
Mon 08:03:20 AM 41.6678 -82.7792 259° West 391 450 36,000  Level Cleveland Center
Mon 08:04:20 AM 41.6464 -82.9228 259° West 391 450 36,000  Level Cleveland Center
Mon 08:05:20 AM 41.6264 -83.0694 260° West 396 456 36,000  Level Cleveland Center
Mon 08:06:20 AM 41.6025 -83.2072 257° West 396 456 36,000  Level Cleveland Center
Mon 08:07:20 AM 41.5831 -83.3314 258° West 391 450 36,000  Level Cleveland Center
Mon 08:08:20 AM 41.5650 -83.4722 260° West 391 450 36,000  Level Cleveland Center
Mon 08:09:20 AM 41.5406 -83.6128 257° West 391 450 36,000  Level Cleveland Center
Mon 08:11:30 AM 41.4997 -83.9083 260° West 388 447 36,000  Level Chicago Center
Mon 08:12:32 AM 41.4764 -84.0494 258° West 389 448 36,000  Level Chicago Center
Mon 08:13:33 AM 41.4636 -84.2189 264° West 388 447 36,000 -244 Level Chicago Center
Mon 08:14:35 AM 41.4692 -84.3622 273° West 387 445 35,500 -1,452 Descending Chicago Center
Mon 08:15:37 AM 41.4747 -84.5056 273° West 389 448 33,000 -2,613 Descending Chicago Center
Mon 08:16:39 AM 41.4806 -84.6531 273° West 397 457 30,100 -1,463 Descending Chicago Center
Mon 08:17:40 AM 41.4869 -84.8078 273° West 413 475 30,000 -49 Descending Chicago Center
Mon 08:18:42 AM 41.4922 -84.9611 273° West 415 478 30,000 -194 Level Chicago Center
Mon 08:19:44 AM 41.4981 -85.1144 273° West 414 476 29,600 -1,500 Descending Chicago Center
Mon 08:20:46 AM 41.5028 -85.2950 272° West 407 468 26,900 -2,585 Descending Chicago Center
Mon 08:21:47 AM 41.5083 -85.4417 273° West 398 458 24,300 -1,805 Descending Chicago Center
Mon 08:22:49 AM 41.5125 -85.5814 272° West 382 440 23,200 -1,065 Descending Chicago Center
Mon 08:23:51 AM 41.5158 -85.7128 272° West 361 415 22,100 -1,463 Descending Chicago Center
Mon 08:24:52 AM 41.5200 -85.8442 272° West 356 410 20,200 -1,902 Descending Chicago Center
Mon 08:25:54 AM 41.5236 -85.9719 272° West 349 402 18,200 -2,032 Descending Chicago Center
Mon 08:26:56 AM 41.5250 -86.0939 271° West 334 384 16,000 -2,081 Descending Chicago Center
Mon 08:27:58 AM 41.5242 -86.2172 270° West 332 382 13,900 -2,293 Descending Chicago Center
Mon 08:28:59 AM 41.5247 -86.3667 270° West 336 387 11,300 -1,756 Descending Chicago Center
Mon 08:30:01 AM 41.5239 -86.4822 269° West 319 367 10,300 -629 Descending Chicago Center
Mon 08:31:03 AM 41.5219 -86.5942 269° West 309 356 10,000 -145 Descending Chicago Center
Mon 08:32:05 AM 41.5217 -86.7025 270° West 299 344 10,000 -195 Level Chicago Center
Mon 08:33:06 AM 41.5219 -86.8097 270° West 294 338 9,600 -732 Descending Chicago Center
Mon 08:34:08 AM 41.5181 -86.9056 267° West 271 312 8,500 -1,161 Descending Chicago Center
Mon 08:35:10 AM 41.5183 -87.0172 270° West 258 297 7,200 -1,210 Descending Chicago Center
Mon 08:36:12 AM 41.5183 -87.1103 270° West 254 292 6,000 -727 Descending Chicago Center
Mon 08:37:22 AM 41.5167 -87.2167 269° West 243 280 5,600 -646 Descending Chicago TRACON
Mon 08:38:22 AM 41.5167 -87.3167 270° West 249 287 4,600 -783 Descending Chicago TRACON
Mon 08:39:17 AM 41.5139 -87.3817 267° West 245 282 4,100 -359 Descending Chicago Center
Mon 08:40:19 AM 41.5125 -87.4697 269° West 243 280 3,900 -98 Descending Chicago Center
Mon 08:41:20 AM 41.5106 -87.5692 269° West 234 269 3,900  Level Chicago Center
Mon 08:42:22 AM 41.5269 -87.6400 287° West 219 252 3,900  Level Chicago Center
Mon 08:43:24 AM 41.5344 -87.7128 278° West 208 239 3,900  Level Chicago Center
Mon 08:44:26 AM 41.5422 -87.7861 278° West 204 235 3,900  Level Chicago Center
Mon 08:45:27 AM 41.5497 -87.8597 278° West 203 234 3,900  Level Chicago Center
Mon 08:46:29 AM 41.5597 -87.9442 279° West 199 229 3,900  Level Chicago Center
Mon 08:47:31 AM 41.5694 -87.9983 284° West 169 194 3,900 -488 Level Chicago Center
Mon 08:48:32 AM 41.6061 -88.0472 315° West 188 216 2,900 -683 Descending Chicago Center
Mon 08:49:34 AM 41.6431 -88.1003 313° West 192 221 2,500 -194 Descending Chicago Center
Mon 08:50:36 AM 41.6869 -88.1386 327° Northwest 217 250 2,500  Level Chicago Center
Mon 08:51:37 AM 41.7325 -88.0861 41° Northeast 216 249 2,500  Level Chicago Center
Mon 08:52:39 AM 41.7883 -88.0233 40° Northeast 218 251 2,500  Level Chicago Center
Mon 08:53:41 AM 41.8364 -87.9758 36° Northeast 217 250 2,500  Level Chicago Center
Mon 08:54:43 AM 41.8797 -87.9286 39° Northeast 223 257 2,500 -247 Level Chicago Center
Mon 08:55:18 AM 41.8833 -87.8833 84° East 163 188 2,100 -253 Descending Chicago TRACON
Mon 08:56:18 AM 41.8500 -87.8500 143° Southeast 129 148 2,100 -150 Level Chicago TRACON
Mon 08:57:18 AM 41.8333 -87.8167 124° Southeast 119 137 1,800 -500 Descending Chicago TRACON
Mon 08:58:18 AM 41.8000 -87.7833 143° Southeast 121 139 1,100 -700 Descending Chicago TRACON

Login

Don't have an account? Register now (free) for customized features, flight alerts, and more!